createdAt,value
2022-08-16T00:02:31.650Z,81.51
2022-08-16T00:05:00.100Z,82.38
2022-08-16T00:07:29.442Z,81.86
2022-08-16T00:09:57.917Z,82.35
2022-08-16T00:12:30.479Z,82.64
2022-08-16T00:14:59.070Z,83.22
2022-08-16T00:17:26.516Z,83.46
2022-08-16T00:19:55.631Z,83.83
2022-08-16T00:22:24.919Z,84.74
2022-08-16T00:24:54.402Z,84.27
2022-08-16T00:27:22.921Z,85.28
2022-08-16T00:30:08.303Z,84.16
2022-08-16T00:32:38.487Z,83.84
2022-08-16T00:35:13.287Z,83.90
2022-08-16T00:37:58.896Z,83.67
2022-08-16T00:40:33.995Z,84.90
2022-08-16T00:43:04.421Z,85.18
2022-08-16T00:46:32.975Z,85.78
2022-08-16T00:48:56.332Z,86.17
2022-08-16T00:51:25.315Z,86.88
2022-08-16T00:53:58.327Z,86.73
2022-08-16T00:56:57.573Z,87.41
2022-08-16T00:59:17.208Z,87.76
2022-08-16T01:01:45.482Z,88.16
2022-08-16T01:04:29.177Z,87.65
2022-08-16T01:07:01.189Z,89.63
2022-08-16T01:09:33.668Z,88.84
2022-08-16T01:12:02.567Z,88.42
2022-08-16T01:14:33.575Z,89.30
2022-08-16T01:17:01.403Z,89.24
2022-08-16T01:19:34.274Z,89.49
2022-08-16T01:22:49.543Z,89.20
2022-08-16T01:25:18.597Z,88.82
2022-08-16T01:27:54.861Z,87.77
2022-08-16T01:30:32.082Z,87.85
2022-08-16T01:33:14.610Z,88.44
2022-08-16T01:35:52.557Z,88.09
2022-08-16T01:38:40.019Z,89.33
2022-08-16T01:41:19.851Z,89.14
2022-08-16T01:43:54.312Z,88.35
2022-08-16T01:46:39.601Z,89.27
2022-08-16T01:49:43.156Z,88.86
2022-08-16T01:52:29.830Z,88.24
2022-08-16T01:54:58.095Z,87.99
2022-08-16T01:57:27.253Z,90.08
2022-08-16T01:59:54.588Z,91.37
2022-08-16T02:02:27.317Z,91.10
2022-08-16T02:04:56.403Z,90.43
2022-08-16T02:07:25.534Z,90.30
2022-08-16T02:09:57.157Z,90.98
2022-08-16T02:12:39.875Z,90.99
2022-08-16T02:15:15.681Z,90.11
2022-08-16T02:17:43.382Z,90.26
2022-08-16T02:20:12.049Z,90.48
2022-08-16T02:22:39.622Z,91.37
2022-08-16T02:25:14.775Z,91.51
2022-08-16T02:27:44.199Z,90.14
2022-08-16T02:30:35.690Z,89.71
2022-08-16T02:33:03.957Z,90.25
2022-08-16T02:35:31.469Z,90.62
2022-08-16T02:38:01.683Z,91.09
2022-08-16T02:40:35.664Z,91.53
2022-08-16T02:43:02.911Z,91.70
2022-08-16T02:45:29.750Z,91.87
2022-08-16T02:48:00.409Z,92.49
2022-08-16T02:51:04.119Z,91.75
2022-08-16T02:53:18.182Z,92.79
2022-08-16T02:55:45.261Z,92.39
2022-08-16T02:58:17.623Z,92.85
2022-08-16T03:00:45.594Z,93.04
2022-08-16T03:03:18.251Z,92.56
2022-08-16T03:05:50.060Z,93.51
2022-08-16T03:08:50.465Z,92.15
2022-08-16T03:11:16.672Z,92.27
2022-08-16T03:13:51.374Z,91.87
2022-08-16T03:16:36.631Z,92.25
2022-08-16T03:19:07.368Z,91.57
2022-08-16T03:21:37.473Z,92.16
2022-08-16T03:24:28.690Z,92.94
2022-08-16T03:26:59.954Z,92.89
2022-08-16T03:29:32.381Z,93.23
2022-08-16T03:32:01.218Z,93.64
2022-08-16T03:34:29.209Z,93.90
2022-08-16T03:36:57.675Z,93.28
2022-08-16T03:39:24.589Z,94.16
2022-08-16T03:41:59.705Z,94.16
2022-08-16T03:44:44.646Z,92.93
2022-08-16T03:47:19.199Z,92.51
2022-08-16T03:49:51.217Z,92.58
2022-08-16T03:52:23.714Z,92.82
2022-08-16T03:54:57.902Z,92.81
2022-08-16T03:57:31.645Z,93.07
2022-08-16T04:00:20.288Z,92.66
2022-08-16T04:03:07.720Z,92.65
2022-08-16T04:05:40.464Z,93.28
2022-08-16T04:08:23.099Z,92.30
2022-08-16T04:10:53.619Z,91.81
2022-08-16T04:14:00.155Z,92.23
2022-08-16T04:16:09.587Z,92.82
2022-08-16T04:18:54.593Z,92.37
2022-08-16T04:21:29.834Z,92.09
2022-08-16T04:23:56.798Z,92.75
2022-08-16T04:26:23.741Z,93.21
2022-08-16T04:28:53.659Z,94.78
2022-08-16T04:31:24.669Z,94.88
2022-08-16T04:33:51.601Z,94.36
2022-08-16T04:36:20.532Z,93.98
2022-08-16T04:38:50.151Z,93.67
2022-08-16T04:41:19.432Z,94.17
2022-08-16T04:44:00.478Z,94.36
2022-08-16T04:47:01.186Z,94.34
2022-08-16T04:49:14.379Z,93.55
2022-08-16T04:51:41.567Z,94.66
2022-08-16T04:54:09.286Z,94.22
2022-08-16T04:56:42.870Z,94.01
2022-08-16T04:59:17.015Z,94.22
2022-08-16T05:01:58.277Z,93.83
2022-08-16T05:04:26.235Z,93.49
2022-08-16T05:06:57.263Z,93.41
2022-08-16T05:09:24.427Z,94.37
2022-08-16T05:11:51.610Z,94.11
2022-08-16T05:14:20.219Z,93.77
2022-08-16T05:17:05.925Z,93.13
2022-08-16T05:19:36.230Z,92.35
2022-08-16T05:22:03.841Z,91.90
2022-08-16T05:24:31.613Z,91.37
2022-08-16T05:26:58.431Z,91.22
2022-08-16T05:29:57.707Z,90.64
2022-08-16T05:32:32.883Z,90.48
2022-08-16T05:35:00.099Z,90.16
2022-08-16T05:37:28.759Z,90.32
2022-08-16T05:40:07.850Z,89.76
2022-08-16T05:42:36.000Z,89.82
2022-08-16T05:45:06.893Z,89.76
2022-08-16T05:47:33.873Z,89.43
2022-08-16T05:50:19.158Z,89.04
2022-08-16T05:52:46.606Z,88.63
2022-08-16T05:55:13.774Z,88.27
2022-08-16T05:57:40.540Z,89.08
2022-08-16T06:00:12.075Z,89.04
2022-08-16T06:02:38.909Z,88.55
2022-08-16T06:05:07.087Z,88.04
2022-08-16T06:07:38.711Z,87.76
2022-08-16T06:10:07.294Z,87.47
2022-08-16T06:12:36.913Z,87.13
2022-08-16T06:15:10.090Z,85.81
2022-08-16T06:17:42.929Z,86.56
2022-08-16T06:20:24.205Z,86.50
2022-08-16T06:22:59.074Z,85.65
2022-08-16T06:25:36.808Z,85.01
2022-08-16T06:28:09.422Z,85.20
2022-08-16T06:30:43.931Z,85.07
2022-08-16T06:33:22.229Z,83.59
2022-08-16T06:35:50.776Z,82.58
2022-08-16T06:38:33.496Z,82.06
2022-08-16T06:41:13.654Z,81.27
2022-08-16T06:43:41.156Z,80.71
2022-08-16T06:46:10.873Z,80.74
2022-08-16T06:48:43.158Z,80.00
2022-08-16T06:51:10.478Z,80.10
2022-08-16T06:53:37.313Z,79.34
2022-08-16T06:56:14.241Z,78.69
2022-08-16T06:58:51.625Z,79.13
2022-08-16T07:01:24.609Z,79.06
2022-08-16T07:04:10.397Z,78.01
2022-08-16T07:06:40.571Z,77.83
2022-08-16T07:09:11.551Z,77.76
2022-08-16T07:11:48.089Z,77.53
2022-08-16T07:14:25.148Z,77.26
2022-08-16T07:16:58.378Z,77.01
2022-08-16T07:20:01.278Z,76.59
2022-08-16T07:22:37.942Z,76.93
2022-08-16T07:25:02.227Z,76.19
2022-08-16T07:27:29.269Z,75.63
2022-08-16T07:30:00.782Z,75.46
2022-08-16T07:32:29.647Z,75.50
2022-08-16T07:34:58.839Z,73.95
2022-08-16T07:37:25.927Z,73.04
2022-08-16T07:39:54.666Z,72.87
2022-08-16T07:42:28.255Z,72.53
2022-08-16T07:45:02.499Z,71.68
2022-08-16T07:47:31.283Z,71.54
2022-08-16T07:49:59.280Z,71.56
2022-08-16T07:52:29.632Z,71.64
2022-08-16T07:54:57.909Z,71.53
2022-08-16T07:57:24.988Z,69.92
2022-08-16T07:59:52.172Z,70.35
2022-08-16T08:02:20.069Z,70.52
2022-08-16T08:04:48.530Z,69.60
2022-08-16T08:07:16.508Z,69.12
2022-08-16T08:09:44.204Z,70.05
2022-08-16T08:12:32.254Z,70.10
2022-08-16T08:15:00.614Z,68.05
2022-08-16T08:17:42.538Z,68.19
2022-08-16T08:20:26.108Z,67.87
2022-08-16T08:23:01.025Z,66.62
2022-08-16T08:25:51.985Z,66.48
2022-08-16T08:28:18.056Z,65.75
2022-08-16T08:30:52.315Z,65.28
2022-08-16T08:33:27.806Z,64.98
2022-08-16T08:36:02.268Z,64.51
2022-08-16T08:38:43.643Z,63.73
2022-08-16T08:41:18.335Z,63.21
2022-08-16T08:43:47.122Z,63.26
2022-08-16T08:46:21.708Z,61.19
2022-08-16T08:48:59.772Z,61.29
2022-08-16T08:51:31.868Z,61.57
2022-08-16T08:54:09.073Z,59.46
2022-08-16T08:56:45.346Z,58.15
2022-08-16T08:59:19.908Z,58.09
2022-08-16T09:01:57.103Z,58.47
2022-08-16T09:04:26.549Z,58.82
2022-08-16T09:06:54.121Z,58.40
2022-08-16T09:09:22.274Z,58.50
2022-08-16T09:12:04.189Z,57.02
2022-08-16T09:14:35.046Z,56.97
2022-08-16T09:17:11.831Z,55.70
2022-08-16T09:19:55.183Z,54.13
2022-08-16T09:22:23.235Z,54.87
2022-08-16T09:24:53.160Z,55.45
2022-08-16T09:27:25.333Z,54.19
2022-08-16T09:29:59.770Z,55.41
2022-08-16T09:32:30.545Z,54.21
2022-08-16T09:34:58.821Z,53.35
2022-08-16T09:37:29.454Z,53.74
2022-08-16T09:40:01.006Z,53.66
2022-08-16T09:42:29.037Z,53.75
2022-08-16T09:45:12.491Z,53.12
2022-08-16T09:47:56.538Z,53.34
2022-08-16T09:50:33.241Z,52.83
2022-08-16T09:53:15.346Z,53.28
2022-08-16T09:55:49.615Z,53.51
2022-08-16T09:58:41.692Z,54.10
2022-08-16T10:01:14.034Z,55.21
2022-08-16T10:04:01.547Z,53.91
2022-08-16T10:06:33.358Z,53.40
2022-08-16T10:09:05.384Z,53.79
2022-08-16T10:11:55.576Z,53.71
2022-08-16T10:14:24.775Z,52.30
2022-08-16T10:17:02.858Z,52.78
2022-08-16T10:19:31.908Z,51.15
2022-08-16T10:21:59.721Z,50.45
2022-08-16T10:24:37.215Z,50.80
2022-08-16T10:27:25.602Z,50.05
2022-08-16T10:29:59.417Z,50.49
2022-08-16T10:32:26.532Z,51.63
2022-08-16T10:34:58.377Z,48.98
2022-08-16T10:37:36.300Z,47.20
2022-08-16T10:40:28.390Z,48.68
2022-08-16T10:42:56.061Z,48.81
2022-08-16T10:45:22.985Z,48.04
2022-08-16T10:47:51.769Z,48.52
2022-08-16T10:50:30.468Z,47.23
2022-08-16T10:52:59.188Z,47.62
2022-08-16T10:55:44.463Z,47.18
2022-08-16T10:58:16.931Z,46.93
2022-08-16T11:00:46.287Z,46.65
2022-08-16T11:06:07.444Z,45.64
2022-08-16T11:08:40.732Z,45.22
2022-08-16T11:11:19.136Z,43.97
2022-08-16T11:14:06.048Z,43.17
2022-08-16T11:19:23.022Z,43.03
2022-08-16T11:24:42.572Z,42.54
2022-08-16T11:27:21.237Z,43.47
2022-08-16T11:29:53.514Z,43.35
2022-08-16T11:32:31.519Z,43.58
2022-08-16T11:35:13.285Z,44.33
2022-08-16T11:40:38.365Z,41.58
2022-08-16T11:43:06.745Z,42.55
2022-08-16T11:45:37.093Z,42.51
2022-08-16T11:48:05.155Z,43.28
2022-08-16T11:50:33.873Z,43.69
2022-08-16T11:53:05.638Z,42.70
2022-08-16T11:55:38.145Z,42.15
2022-08-16T11:58:06.898Z,40.58
2022-08-16T12:00:50.485Z,42.14
2022-08-16T12:03:29.701Z,42.53
2022-08-16T12:06:10.885Z,42.92
2022-08-16T12:08:39.111Z,41.79
2022-08-16T12:11:06.250Z,41.82
2022-08-16T12:13:33.988Z,41.39
2022-08-16T12:16:01.154Z,41.44
2022-08-16T12:18:27.886Z,40.98
2022-08-16T12:20:55.476Z,41.74
2022-08-16T12:23:25.274Z,40.46
2022-08-16T12:25:52.544Z,41.72
2022-08-16T12:28:36.641Z,42.33
2022-08-16T12:31:06.740Z,41.03
2022-08-16T12:33:44.553Z,41.27
2022-08-16T12:36:14.255Z,41.80
2022-08-16T12:38:48.025Z,42.64
2022-08-16T12:41:15.945Z,42.63
2022-08-16T12:43:52.289Z,42.62
2022-08-16T12:46:19.073Z,41.73
2022-08-16T12:48:58.166Z,42.50
2022-08-16T12:51:59.260Z,40.71
2022-08-16T12:54:27.897Z,40.92
2022-08-16T12:56:55.530Z,41.27
2022-08-16T12:59:23.680Z,41.04
2022-08-16T13:01:58.102Z,41.71
2022-08-16T13:04:26.317Z,41.88
2022-08-16T13:06:53.657Z,41.33
2022-08-16T13:09:26.179Z,42.83
2022-08-16T13:12:03.615Z,42.60
2022-08-16T13:14:38.206Z,42.65
2022-08-16T13:17:08.314Z,43.31
2022-08-16T13:20:05.903Z,43.45
2022-08-16T13:22:24.407Z,43.25
2022-08-16T13:24:52.647Z,42.96
2022-08-16T13:27:20.842Z,43.06
2022-08-16T13:30:21.863Z,43.00
2022-08-16T13:32:54.230Z,43.55
2022-08-16T13:35:22.575Z,43.97
2022-08-16T13:37:58.459Z,43.30
2022-08-16T13:40:25.366Z,43.09
2022-08-16T13:42:55.368Z,42.61
2022-08-16T13:45:25.938Z,43.02
2022-08-16T13:47:53.860Z,43.65
2022-08-16T13:50:31.209Z,42.30
2022-08-16T13:53:07.889Z,41.72
2022-08-16T13:55:35.363Z,41.32
2022-08-16T13:58:34.810Z,41.31
2022-08-16T14:00:54.590Z,40.24
2022-08-16T14:03:21.979Z,40.46
2022-08-16T14:05:52.924Z,40.24
2022-08-16T14:08:23.877Z,39.70
2022-08-16T14:10:53.683Z,38.95
2022-08-16T14:13:21.695Z,38.38
2022-08-16T14:15:49.102Z,38.74
2022-08-16T14:18:20.022Z,38.91
2022-08-16T14:20:48.653Z,38.86
2022-08-16T14:23:16.408Z,39.13
2022-08-16T14:25:54.401Z,38.66
2022-08-16T14:28:25.875Z,38.44
2022-08-16T14:30:53.602Z,37.77
2022-08-16T14:33:20.556Z,37.84
2022-08-16T14:35:50.321Z,37.24
2022-08-16T14:38:23.985Z,37.49
2022-08-16T14:40:55.101Z,37.55
2022-08-16T14:43:23.127Z,37.35
2022-08-16T14:45:50.340Z,37.32
2022-08-16T14:48:25.158Z,36.84
2022-08-16T14:50:53.050Z,36.93
2022-08-16T14:53:19.840Z,37.25
2022-08-16T14:55:48.450Z,37.21
2022-08-16T14:58:19.317Z,38.54
2022-08-16T15:00:50.638Z,37.10
2022-08-16T15:03:19.000Z,37.22
2022-08-16T15:05:48.807Z,37.14
2022-08-16T15:08:21.219Z,35.78
2022-08-16T15:11:03.165Z,36.54
2022-08-16T15:13:30.032Z,36.49
2022-08-16T15:16:02.238Z,35.67
2022-08-16T15:18:31.798Z,35.78
2022-08-16T15:21:04.167Z,36.07
2022-08-16T15:23:34.042Z,36.34
2022-08-16T15:26:03.449Z,36.48
2022-08-16T15:28:32.839Z,35.60
2022-08-16T15:31:04.714Z,37.08
2022-08-16T15:33:35.941Z,34.95
2022-08-16T15:36:07.725Z,34.68
2022-08-16T15:39:02.667Z,34.49
2022-08-16T15:41:43.069Z,34.45
2022-08-16T15:44:21.189Z,35.19
2022-08-16T15:46:56.134Z,34.71
2022-08-16T15:49:34.357Z,34.64
2022-08-16T15:52:10.508Z,35.34
2022-08-16T15:54:51.433Z,34.66
2022-08-16T15:57:22.375Z,35.02
2022-08-16T15:59:52.742Z,35.61
2022-08-16T16:02:29.227Z,35.25
2022-08-16T16:05:00.644Z,35.80
2022-08-16T16:07:30.358Z,36.42
2022-08-16T16:09:59.400Z,36.54
2022-08-16T16:15:16.925Z,36.92
2022-08-16T16:17:44.182Z,36.90
2022-08-16T16:20:18.641Z,36.06
2022-08-16T16:22:46.769Z,37.00
2022-08-16T16:25:16.101Z,36.50
2022-08-16T16:27:45.220Z,36.44
2022-08-16T16:30:32.866Z,37.22
2022-08-16T16:33:02.322Z,36.78
2022-08-16T16:35:30.819Z,35.83
2022-08-16T16:37:59.802Z,35.61
2022-08-16T16:40:32.554Z,36.26
2022-08-16T16:43:00.440Z,36.10
2022-08-16T16:45:33.325Z,36.10
2022-08-16T16:48:12.615Z,36.99
2022-08-16T16:50:44.574Z,37.05
2022-08-16T16:53:17.481Z,37.08
2022-08-16T16:55:47.723Z,38.61
2022-08-16T16:58:38.635Z,36.59
2022-08-16T17:01:08.345Z,37.60
2022-08-16T17:03:35.715Z,38.29
2022-08-16T17:06:09.453Z,37.57
2022-08-16T17:08:40.788Z,38.85
2022-08-16T17:11:12.780Z,38.96
2022-08-16T17:13:40.225Z,38.86
2022-08-16T17:16:09.432Z,39.38
2022-08-16T17:19:17.321Z,40.99
2022-08-16T17:21:36.795Z,43.49
2022-08-16T17:24:18.389Z,44.03
2022-08-16T17:26:49.189Z,43.10
2022-08-16T17:29:23.777Z,43.68
2022-08-16T17:32:33.218Z,43.39
2022-08-16T17:34:50.505Z,43.04
2022-08-16T17:37:17.976Z,42.24
2022-08-16T17:40:00.198Z,41.64
2022-08-16T17:42:30.850Z,42.97
2022-08-16T17:44:57.592Z,43.13
2022-08-16T17:47:24.433Z,42.80
2022-08-16T17:49:51.296Z,44.87
2022-08-16T17:52:18.261Z,44.56
2022-08-16T17:54:45.381Z,44.70
2022-08-16T17:57:12.815Z,44.41
2022-08-16T17:59:41.310Z,45.25
2022-08-16T18:02:42.066Z,46.65
2022-08-16T18:04:56.095Z,45.98
2022-08-16T18:07:22.983Z,46.75
2022-08-16T18:09:52.275Z,46.93
2022-08-16T18:12:54.323Z,46.63
2022-08-16T18:15:14.297Z,47.44
2022-08-16T18:17:42.036Z,47.33
2022-08-16T18:20:28.840Z,47.46
2022-08-16T18:23:03.576Z,47.02
2022-08-16T18:25:30.429Z,47.87
2022-08-16T18:27:57.291Z,49.48
2022-08-16T18:30:24.371Z,51.83
2022-08-16T18:32:51.746Z,51.39
2022-08-16T18:35:20.006Z,50.19
2022-08-16T18:37:47.431Z,49.43
2022-08-16T18:40:15.861Z,49.50
2022-08-16T18:43:00.993Z,50.21
2022-08-16T18:45:35.614Z,50.46
2022-08-16T18:48:05.237Z,50.54
2022-08-16T18:50:58.906Z,50.72
2022-08-16T18:53:20.940Z,51.96
2022-08-16T18:55:48.915Z,54.14
2022-08-16T18:58:16.504Z,54.89
2022-08-16T19:00:56.577Z,54.53
2022-08-16T19:03:31.762Z,54.96
2022-08-16T19:06:02.993Z,54.08
2022-08-16T19:08:30.209Z,55.01
2022-08-16T19:10:56.984Z,55.83
2022-08-16T19:13:26.771Z,56.98
2022-08-16T19:15:56.023Z,56.36
2022-08-16T19:18:23.561Z,55.06
2022-08-16T19:20:51.356Z,56.21
2022-08-16T19:23:21.036Z,57.23
2022-08-16T19:25:54.421Z,57.84
2022-08-16T19:28:49.226Z,58.88
2022-08-16T19:31:21.250Z,57.53
2022-08-16T19:33:53.683Z,59.81
2022-08-16T19:36:33.976Z,58.94
2022-08-16T19:39:11.463Z,57.08
2022-08-16T19:41:40.846Z,58.03
2022-08-16T19:44:07.978Z,60.14
2022-08-16T19:46:35.276Z,59.44
2022-08-16T19:49:02.466Z,61.14
2022-08-16T19:51:29.581Z,60.68
2022-08-16T19:53:56.296Z,60.01
2022-08-16T19:56:24.766Z,61.03
2022-08-16T19:59:17.401Z,60.41
2022-08-16T20:01:42.300Z,60.44
2022-08-16T20:04:12.877Z,62.30
2022-08-16T20:06:41.210Z,62.21
2022-08-16T20:09:08.330Z,61.92
2022-08-16T20:11:37.393Z,61.79
2022-08-16T20:14:04.656Z,64.29
2022-08-16T20:16:31.779Z,65.27
2022-08-16T20:18:59.065Z,65.50
2022-08-16T20:21:26.293Z,65.34
2022-08-16T20:24:01.291Z,67.19
2022-08-16T20:26:37.476Z,68.17
2022-08-16T20:29:04.297Z,67.96
2022-08-16T20:31:31.265Z,66.18
2022-08-16T20:33:58.342Z,65.52
2022-08-16T20:36:25.663Z,68.31
2022-08-16T20:38:52.975Z,67.66
2022-08-16T20:41:22.487Z,67.87
2022-08-16T20:43:50.696Z,67.23
2022-08-16T20:46:21.944Z,66.75
2022-08-16T20:48:48.838Z,66.23
2022-08-16T20:51:16.473Z,66.97
2022-08-16T20:53:44.549Z,66.69
2022-08-16T20:56:12.540Z,67.66
2022-08-16T20:58:39.570Z,67.63
2022-08-16T21:01:07.379Z,67.19
2022-08-16T21:03:34.923Z,66.66
2022-08-16T21:06:02.634Z,66.15
2022-08-16T21:08:53.183Z,65.86
2022-08-16T21:11:17.026Z,66.32
2022-08-16T21:13:43.895Z,66.73
2022-08-16T21:16:10.925Z,68.32
2022-08-16T21:18:37.632Z,69.28
2022-08-16T21:21:04.739Z,68.41
2022-08-16T21:23:31.572Z,69.20
2022-08-16T21:25:59.801Z,71.03
2022-08-16T21:28:36.783Z,69.99
2022-08-16T21:31:09.381Z,70.29
2022-08-16T21:33:36.369Z,70.56
2022-08-16T21:36:03.862Z,71.64
2022-08-16T21:38:31.160Z,72.55
2022-08-16T21:40:59.645Z,73.37
2022-08-16T21:43:32.657Z,75.53
2022-08-16T21:46:04.547Z,75.24
2022-08-16T21:48:35.968Z,74.79
2022-08-16T21:51:05.949Z,76.54
2022-08-16T21:53:33.407Z,76.80
2022-08-16T21:56:01.421Z,77.04
2022-08-16T21:58:29.229Z,76.84
2022-08-16T22:00:56.289Z,76.87
2022-08-16T22:03:23.708Z,77.34
2022-08-16T22:06:12.119Z,78.29
2022-08-16T22:08:48.028Z,78.43
2022-08-16T22:11:22.928Z,78.69
2022-08-16T22:13:57.723Z,77.78
2022-08-16T22:16:27.324Z,76.80
2022-08-16T22:18:54.317Z,77.47
2022-08-16T22:21:21.377Z,79.57
2022-08-16T22:23:57.820Z,79.79
2022-08-16T22:26:34.770Z,79.44
2022-08-16T22:29:04.696Z,78.52
2022-08-16T22:31:32.489Z,78.90
2022-08-16T22:33:59.621Z,78.57
2022-08-16T22:36:28.091Z,79.09
2022-08-16T22:38:58.256Z,76.82
2022-08-16T22:41:27.476Z,77.12
2022-08-16T22:43:54.230Z,77.20
2022-08-16T22:46:21.182Z,76.57
2022-08-16T22:48:51.348Z,77.94
2022-08-16T22:51:22.975Z,79.96
2022-08-16T22:53:49.947Z,80.69
2022-08-16T22:56:17.776Z,80.51
2022-08-16T22:58:45.469Z,79.68
2022-08-16T23:01:13.714Z,78.93
2022-08-16T23:03:41.473Z,78.11
2022-08-16T23:06:08.645Z,77.46
2022-08-16T23:08:40.312Z,78.39
2022-08-16T23:11:15.394Z,76.28
2022-08-16T23:13:51.486Z,76.84
2022-08-16T23:16:32.333Z,77.64
2022-08-16T23:19:03.567Z,79.33
2022-08-16T23:21:30.847Z,79.13
2022-08-16T23:23:57.651Z,79.02
2022-08-16T23:26:44.304Z,79.58
2022-08-16T23:29:15.880Z,79.10
2022-08-16T23:31:50.696Z,79.99
2022-08-16T23:34:20.813Z,79.77
2022-08-16T23:36:47.572Z,79.59
2022-08-16T23:39:14.656Z,79.66
2022-08-16T23:41:41.544Z,79.50
2022-08-16T23:44:42.136Z,79.61
2022-08-16T23:46:55.958Z,80.03
2022-08-16T23:49:57.793Z,80.52
2022-08-16T23:52:10.935Z,80.58
2022-08-16T23:54:37.894Z,80.44
2022-08-16T23:57:05.353Z,80.80
2022-08-16T23:59:38.041Z,80.56
